Time;durP1;ratioP1;P1;durP2;ratioP2;P2;SDS_P1;SDS_P2;PMS_P1;PMS_P2;Temp;Humidity;BMP_temperature;BMP_pressure;BME280_temperature;BME280_humidity;BME280_pressure;Samples;Min_cycle;Max_cycle;Signal;HPM_P1;HPM_P2
2024/02/18 00:02:09;;;;;;;4.03;2.10;;;;;;;10.37;51.74;101940.38;4871754;28;101290;-74
2024/02/18 00:04:35;;;;;;;4.75;1.80;;;;;;;10.43;51.38;101942.09;4880763;28;96825;-75
2024/02/18 00:07:00;;;;;;;8.95;2.60;;;;;;;10.50;51.48;101945.53;4881594;28;96851;-75
2024/02/18 00:09:26;;;;;;;8.88;2.20;;;;;;;10.53;51.42;101948.13;4860502;28;101080;-76
2024/02/18 00:11:52;;;;;;;8.60;2.90;;;;;;;10.54;51.47;101952.53;4887572;28;100886;-75
2024/02/18 00:14:17;;;;;;;7.50;2.63;;;;;;;10.39;51.35;101954.38;4901110;28;96801;-75
2024/02/18 00:16:43;;;;;;;7.43;2.75;;;;;;;10.39;51.06;101959.63;4891886;28;96899;-76
2024/02/18 00:19:13;;;;;;;4.47;2.00;;;;;;;10.25;51.00;101957.97;4908496;28;97908;-77
2024/02/18 00:21:39;;;;;;;5.88;1.98;;;;;;;10.41;50.77;101962.22;4861437;28;101062;-74
2024/02/18 00:24:04;;;;;;;5.78;2.17;;;;;;;10.43;50.88;101961.34;4866618;28;96915;-75
2024/02/18 00:26:30;;;;;;;12.10;2.67;;;;;;;10.39;50.89;101962.25;4877354;28;96934;-74
2024/02/18 00:28:56;;;;;;;6.70;2.25;;;;;;;10.45;50.76;101965.72;4872096;28;101450;-74
2024/02/18 00:31:22;;;;;;;5.88;1.83;;;;;;;10.46;50.71;101975.34;4878381;28;98016;-76
2024/02/18 00:33:47;;;;;;;7.35;2.35;;;;;;;10.47;51.30;101967.47;4902834;28;97031;-77
2024/02/18 00:36:13;;;;;;;5.55;2.40;;;;;;;10.48;51.05;101961.31;4895274;28;96821;-76
2024/02/18 00:38:39;;;;;;;5.15;2.30;;;;;;;10.52;51.22;101972.66;4894517;28;97945;-74
2024/02/18 00:41:42;;;;;;;6.03;2.30;;;;;;;10.41;50.57;101970.09;4891656;28;97306;-75
2024/02/18 00:44:08;;;;;;;4.63;2.30;;;;;;;10.29;51.09;101968.44;4883906;28;97010;-75
2024/02/18 00:46:34;;;;;;;5.22;1.75;;;;;;;10.36;50.79;101971.91;4882548;28;96728;-75
2024/02/18 00:48:59;;;;;;;6.55;2.33;;;;;;;10.43;50.95;101978.84;4880550;28;101564;-74
2024/02/18 00:51:25;;;;;;;5.57;2.25;;;;;;;10.49;51.12;101975.31;4889331;28;98177;-75
2024/02/18 00:53:57;;;;;;;5.63;1.83;;;;;;;10.52;50.61;101978.78;4885998;28;97269;-75
2024/02/18 00:56:25;;;;;;;8.07;2.10;;;;;;;10.48;50.83;101977.06;4900686;28;96797;-75
2024/02/18 00:58:52;;;;;;;3.65;1.80;;;;;;;10.43;51.08;101979.72;4893626;28;97718;-74
2024/02/18 01:01:18;;;;;;;9.20;2.17;;;;;;;10.47;50.68;101977.97;4880960;28;101442;-75
2024/02/18 01:03:45;;;;;;;7.88;2.40;;;;;;;10.44;50.72;101975.34;4876974;28;97299;-75
2024/02/18 01:06:11;;;;;;;6.90;2.00;;;;;;;10.51;50.63;101965.69;4878799;28;97409;-75
2024/02/18 01:08:37;;;;;;;5.07;2.25;;;;;;;10.42;50.40;101967.50;4902546;28;98107;-75
2024/02/18 01:11:03;;;;;;;4.57;2.30;;;;;;;10.46;50.80;101977.97;4892700;28;97459;-76
2024/02/18 01:13:29;;;;;;;5.13;2.08;;;;;;;10.33;50.07;101974.56;4876697;28;96849;-74
2024/02/18 01:15:55;;;;;;;7.00;2.10;;;;;;;10.35;50.36;101973.66;4871160;28;96884;-75
2024/02/18 01:18:20;;;;;;;5.43;2.33;;;;;;;10.41;50.79;101975.34;4879865;28;97431;-75
2024/02/18 01:20:46;;;;;;;10.90;2.38;;;;;;;10.30;50.17;101974.59;4894912;28;97869;-74
2024/02/18 01:23:12;;;;;;;5.53;1.73;;;;;;;10.29;50.33;101975.44;4910570;28;96785;-75
2024/02/18 01:25:38;;;;;;;9.60;2.17;;;;;;;10.23;50.05;101976.31;4906932;28;96884;-75
2024/02/18 01:28:04;;;;;;;5.72;2.50;;;;;;;10.18;50.19;101978.09;4898945;28;97530;-75
2024/02/18 01:30:29;;;;;;;7.13;2.20;;;;;;;10.18;49.86;101978.09;4893725;28;97340;-75
2024/02/18 01:32:55;;;;;;;14.93;3.03;;;;;;;10.29;49.36;101983.31;4878492;28;96867;-75
2024/02/18 01:35:21;;;;;;;4.68;2.03;;;;;;;10.19;49.18;101990.34;4878189;28;96882;-75
2024/02/18 01:37:47;;;;;;;6.20;2.40;;;;;;;10.22;49.52;101987.72;4894447;28;98296;-76
2024/02/18 01:40:13;;;;;;;5.63;2.22;;;;;;;10.20;49.94;101982.47;4874741;28;101628;-74
2024/02/18 01:42:47;;;;;;;5.97;2.15;;;;;;;10.21;49.48;101975.47;4886311;28;96732;-75
2024/02/18 01:45:13;;;;;;;5.15;1.90;;;;;;;10.28;48.99;101971.09;4895218;28;96979;-75
2024/02/18 01:47:42;;;;;;;6.05;2.20;;;;;;;10.20;48.64;101973.72;4894097;28;97506;-75
2024/02/18 01:50:08;;;;;;;8.10;3.00;;;;;;;10.27;49.28;101980.72;4893442;28;97487;-75
2024/02/18 01:52:35;;;;;;;7.53;2.47;;;;;;;10.26;48.78;101980.69;4877600;28;97356;-76
2024/02/18 01:55:02;;;;;;;5.78;2.00;;;;;;;10.22;48.80;101971.09;4895736;28;96849;-75
2024/02/18 01:57:29;;;;;;;3.80;1.73;;;;;;;9.97;48.23;101972.09;4874610;28;97531;-75
2024/02/18 02:00:06;;;;;;;5.45;2.15;;;;;;;10.05;48.38;101976.44;4877761;28;101708;-75
2024/02/18 02:02:37;;;;;;;6.88;1.80;;;;;;;10.16;48.38;101974.63;4899268;28;96826;-75
2024/02/18 02:05:05;;;;;;;7.30;1.73;;;;;;;10.16;48.75;101982.50;4870397;28;96758;-76
2024/02/18 02:07:30;;;;;;;10.00;2.28;;;;;;;10.15;48.94;101979.00;4881524;28;100685;-76
2024/02/18 02:09:56;;;;;;;5.63;1.58;;;;;;;10.10;48.33;101977.28;4858205;28;101277;-75
2024/02/18 02:12:34;;;;;;;5.50;2.10;;;;;;;10.13;48.26;101972.03;4888578;28;96729;-78
2024/02/18 02:15:00;;;;;;;5.20;1.80;;;;;;;10.12;47.98;101970.25;4893442;28;97553;-76
2024/02/18 02:17:26;;;;;;;4.03;1.85;;;;;;;10.13;47.91;101972.91;4881828;28;101520;-76
2024/02/18 02:19:52;;;;;;;5.75;2.20;;;;;;;10.16;48.81;101972.00;4844457;28;1467479;-75
2024/02/18 02:22:18;;;;;;;7.93;1.90;;;;;;;10.14;48.26;101961.50;4885064;28;96884;-76
2024/02/18 02:24:44;;;;;;;5.93;2.25;;;;;;;10.19;47.78;101962.34;4897766;28;96866;-75
2024/02/18 02:27:11;;;;;;;3.78;1.45;;;;;;;10.19;47.88;101964.13;4896192;28;97816;-76
2024/02/18 02:29:43;;;;;;;6.43;1.65;;;;;;;10.18;48.50;101965.88;4882735;28;101263;-75
2024/02/18 02:32:09;;;;;;;6.78;1.90;;;;;;;10.06;47.86;101963.28;4891238;28;96775;-75
2024/02/18 02:34:35;;;;;;;5.15;1.92;;;;;;;9.63;48.32;101960.00;4895711;28;96817;-76
2024/02/18 02:37:00;;;;;;;3.42;1.90;;;;;;;9.68;48.47;101964.38;4875805;28;101906;-75
2024/02/18 02:39:26;;;;;;;5.35;2.00;;;;;;;9.49;49.16;101976.69;4913140;28;97990;-76
2024/02/18 02:41:51;;;;;;;5.68;2.83;;;;;;;9.41;49.86;101964.47;4876062;28;97625;-76
2024/02/18 02:44:17;;;;;;;8.48;3.05;;;;;;;9.37;51.17;101974.09;4879662;28;97442;-76
2024/02/18 02:46:43;;;;;;;8.80;2.88;;;;;;;9.35;51.76;101980.22;4877811;28;101563;-77
2024/02/18 02:49:10;;;;;;;9.07;2.80;;;;;;;9.51;51.66;101976.66;4899797;28;97569;-77
2024/02/18 02:51:35;;;;;;;6.07;3.20;;;;;;;9.66;51.70;101976.63;4880622;28;96771;-76
2024/02/18 02:54:01;;;;;;;4.90;2.55;;;;;;;9.59;51.29;101982.75;4892059;28;96889;-75
2024/02/18 02:56:27;;;;;;;8.77;2.45;;;;;;;9.63;50.61;101983.63;4894774;28;101106;-76
2024/02/18 02:58:54;;;;;;;10.02;2.90;;;;;;;9.53;51.70;101982.78;4880309;28;101137;-76
2024/02/18 03:01:20;;;;;;;7.43;3.03;;;;;;;9.43;53.07;101988.94;4898068;28;96917;-76
2024/02/18 03:03:45;;;;;;;9.38;3.25;;;;;;;9.01;54.44;101986.38;4898635;28;96893;-76
2024/02/18 03:06:11;;;;;;;6.78;3.30;;;;;;;9.17;53.97;101983.75;4882091;28;99929;-76
2024/02/18 03:09:04;;;;;;;7.60;3.33;;;;;;;9.35;53.61;101980.22;4871221;28;97369;-76
2024/02/18 03:11:30;;;;;;;7.40;3.40;;;;;;;9.46;53.58;101999.44;4885228;28;96793;-75
2024/02/18 03:13:57;;;;;;;9.25;3.53;;;;;;;9.20;53.67;102000.34;4882514;28;96773;-76
2024/02/18 03:16:22;;;;;;;10.68;4.03;;;;;;;8.94;53.91;102000.38;4903791;28;97453;-76
2024/02/18 03:18:48;;;;;;;12.18;3.65;;;;;;;8.83;53.72;101996.88;4856649;28;100904;-76
2024/02/18 03:21:15;;;;;;;8.88;3.03;;;;;;;8.97;53.80;101995.13;4878276;28;97380;-76
2024/02/18 03:23:42;;;;;;;9.10;2.80;;;;;;;9.10;53.34;102002.97;4870868;28;96834;-77
2024/02/18 03:26:08;;;;;;;9.07;3.08;;;;;;;9.22;53.22;102000.31;4857467;28;101005;-76
2024/02/18 03:28:34;;;;;;;12.13;3.15;;;;;;;9.12;53.21;101994.25;4864032;28;98070;-76
2024/02/18 03:35:05;;;;;;;9.80;2.95;;;;;;;9.25;52.92;101997.69;4859156;28;96650;-76
2024/02/18 03:37:31;;;;;;;10.38;3.63;;;;;;;9.32;52.74;101993.34;4877666;28;97445;-76
2024/02/18 03:39:57;;;;;;;8.15;2.83;;;;;;;9.27;53.17;101996.81;4873178;28;97349;-76
2024/02/18 03:42:23;;;;;;;7.97;2.92;;;;;;;9.33;53.19;101992.44;4879931;28;96725;-77
2024/02/18 03:44:48;;;;;;;5.97;2.58;;;;;;;8.98;53.83;101990.75;4857793;28;96918;-76
2024/02/18 03:47:14;;;;;;;5.35;2.63;;;;;;;8.72;54.08;102004.72;4860803;28;97468;-75
2024/02/18 03:49:40;;;;;;;6.47;2.85;;;;;;;8.48;54.77;102007.34;4864634;28;97315;-75
2024/02/18 03:52:11;;;;;;;4.63;2.35;;;;;;;8.30;55.34;101998.56;4890283;28;96831;-75
2024/02/18 03:54:37;;;;;;;7.00;2.43;;;;;;;8.67;54.49;102008.22;4867852;28;97000;-75
2024/02/18 03:57:08;;;;;;;5.72;2.58;;;;;;;8.45;54.46;102004.72;4873053;28;101816;-75
2024/02/18 03:59:34;;;;;;;5.78;2.67;;;;;;;8.16;55.30;102001.13;4853293;28;101215;-76
2024/02/18 04:01:59;;;;;;;5.50;2.38;;;;;;;8.13;55.31;102006.34;4849394;28;96913;-76
2024/02/18 04:04:28;;;;;;;5.88;2.38;;;;;;;8.09;55.43;102009.84;4863441;28;96702;-76
2024/02/18 04:06:53;;;;;;;4.93;2.25;;;;;;;8.11;54.94;102005.47;4853677;28;97597;-76
2024/02/18 04:09:19;;;;;;;5.30;2.08;;;;;;;8.15;55.39;102006.38;4863748;28;99457;-76
2024/02/18 04:11:44;;;;;;;3.72;2.22;;;;;;;8.39;54.98;102009.06;4875294;28;96912;-75
2024/02/18 04:14:10;;;;;;;5.35;2.20;;;;;;;8.25;54.64;102012.50;4875465;28;96921;-76
2024/02/18 04:16:35;;;;;;;5.55;2.40;;;;;;;8.25;54.88;102012.50;4873857;28;97472;-75
2024/02/18 04:19:01;;;;;;;3.55;1.90;;;;;;;8.37;55.02;102007.28;4865806;28;100724;-75
2024/02/18 04:21:27;;;;;;;2.80;1.80;;;;;;;8.47;54.45;101998.63;4876963;28;97000;-75
2024/02/18 04:23:52;;;;;;;5.15;2.40;;;;;;;8.59;54.04;102010.84;4895132;28;96800;-75
2024/02/18 04:26:18;;;;;;;8.27;2.50;;;;;;;8.51;54.19;102016.06;4889603;28;97456;-76
2024/02/18 04:28:44;;;;;;;5.78;2.08;;;;;;;8.53;54.29;102011.72;4882458;28;101412;-75
2024/02/18 04:31:09;;;;;;;7.72;2.50;;;;;;;8.51;54.26;102007.34;4887786;28;96843;-75
2024/02/18 04:33:35;;;;;;;4.50;1.88;;;;;;;8.39;54.24;102008.19;4889805;28;96809;-76
2024/02/18 04:36:01;;;;;;;7.20;2.05;;;;;;;8.32;54.45;102009.91;4877318;28;97690;-75
2024/02/18 04:38:26;;;;;;;6.18;2.13;;;;;;;8.18;54.37;102001.16;4877306;28;101464;-75
2024/02/18 04:40:52;;;;;;;6.95;2.38;;;;;;;8.27;54.42;101989.81;4892881;28;96831;-75
2024/02/18 04:43:17;;;;;;;7.57;1.95;;;;;;;8.32;54.58;101994.19;4861751;28;97032;-76
2024/02/18 04:45:44;;;;;;;4.15;1.95;;;;;;;8.17;54.31;101999.38;4892826;28;97336;-77
2024/02/18 04:48:10;;;;;;;4.15;1.85;;;;;;;8.23;54.84;101999.44;4880655;28;101223;-76
2024/02/18 04:50:37;;;;;;;5.03;2.10;;;;;;;8.37;54.08;102000.28;4874106;28;96781;-75
2024/02/18 04:53:03;;;;;;;5.75;2.15;;;;;;;8.45;54.18;102004.72;4886012;28;96767;-76
2024/02/18 04:55:28;;;;;;;5.85;1.98;;;;;;;8.48;53.76;101996.88;4865768;28;97572;-76
2024/02/18 04:57:59;;;;;;;9.38;2.03;;;;;;;8.47;54.17;101989.91;4900066;28;101183;-76
2024/02/18 05:00:25;;;;;;;6.13;2.28;;;;;;;8.42;53.91;101991.63;4888096;28;96798;-75
2024/02/18 05:02:50;;;;;;;4.82;2.00;;;;;;;8.07;54.31;101984.53;4878312;28;97273;-75
2024/02/18 05:05:16;;;;;;;8.45;2.15;;;;;;;8.16;54.80;101988.03;4892079;28;96899;-76
2024/02/18 05:07:41;;;;;;;5.22;2.10;;;;;;;7.94;55.10;101987.13;4894710;28;97119;-76
2024/02/18 05:10:07;;;;;;;7.13;2.65;;;;;;;7.97;54.78;101982.75;4892379;28;96984;-76
2024/02/18 05:12:33;;;;;;;6.60;2.03;;;;;;;8.22;54.84;101984.56;4888517;28;96891;-75
2024/02/18 05:15:06;;;;;;;6.32;2.15;;;;;;;8.19;54.74;101988.94;4858673;28;101247;-77
2024/02/18 05:17:31;;;;;;;5.35;2.38;;;;;;;8.13;54.60;101984.56;4873869;28;100902;-75
2024/02/18 05:19:57;;;;;;;6.32;2.72;;;;;;;8.06;54.51;101981.06;4875595;28;96769;-76
2024/02/18 05:22:24;;;;;;;5.50;1.95;;;;;;;7.91;54.80;101978.38;4894812;28;96781;-75
2024/02/18 05:24:50;;;;;;;8.70;2.00;;;;;;;7.98;54.76;101977.53;4885811;28;101228;-75
2024/02/18 05:27:15;;;;;;;3.38;1.45;;;;;;;7.74;55.13;101985.28;4871945;28;101370;-75
2024/02/18 05:29:41;;;;;;;4.15;1.70;;;;;;;7.64;55.16;101987.00;4883708;28;96898;-76
2024/02/18 05:32:06;;;;;;;8.05;1.90;;;;;;;7.67;55.33;101985.25;4861289;28;97008;-76
2024/02/18 05:34:32;;;;;;;7.25;2.83;;;;;;;7.68;55.30;101986.16;4892719;28;97388;-76
2024/02/18 05:36:57;;;;;;;5.65;2.17;;;;;;;7.77;54.66;101999.25;4873954;28;101424;-76
2024/02/18 05:39:23;;;;;;;3.05;1.88;;;;;;;7.58;55.50;102005.25;4874466;28;96737;-76
2024/02/18 05:41:48;;;;;;;7.10;2.33;;;;;;;7.56;55.35;102001.75;4877223;28;96993;-77
2024/02/18 05:44:14;;;;;;;5.00;2.45;;;;;;;7.84;54.88;102003.63;4879412;28;97993;-77
2024/02/18 05:46:39;;;;;;;5.30;2.10;;;;;;;7.72;54.74;102009.69;4883590;28;99106;-76
2024/02/18 05:49:05;;;;;;;3.50;1.88;;;;;;;7.94;54.55;102009.75;4873846;28;96959;-76
2024/02/18 05:51:31;;;;;;;8.00;2.30;;;;;;;7.90;54.39;102011.50;4888300;28;96966;-76
2024/02/18 05:53:57;;;;;;;7.60;2.00;;;;;;;8.10;54.32;102015.94;4876514;28;101129;-76
2024/02/18 05:56:23;;;;;;;6.05;2.33;;;;;;;8.02;53.52;102017.66;4891812;28;97504;-76
2024/02/18 05:58:49;;;;;;;3.45;2.00;;;;;;;7.97;53.99;102028.13;4881219;28;97280;-77
2024/02/18 06:01:14;;;;;;;6.53;2.08;;;;;;;8.03;53.90;102035.06;4895752;28;96872;-76
2024/02/18 06:03:40;;;;;;;6.95;2.00;;;;;;;8.04;53.87;102036.84;4872886;28;100087;-76
2024/02/18 06:06:05;;;;;;;8.23;2.35;;;;;;;7.99;54.04;102023.75;4888099;28;97522;-76
2024/02/18 06:08:31;;;;;;;5.05;2.17;;;;;;;7.93;53.32;102026.34;4865666;28;97151;-76
2024/02/18 06:10:57;;;;;;;3.47;1.80;;;;;;;7.67;53.81;102027.09;4891598;28;96808;-76
2024/02/18 06:13:23;;;;;;;6.53;2.45;;;;;;;7.56;54.32;102027.91;4867561;28;100791;-76
2024/02/18 06:15:48;;;;;;;4.80;2.22;;;;;;;7.50;54.67;102031.34;4874300;28;97969;-76
2024/02/18 06:18:16;;;;;;;5.03;1.85;;;;;;;7.36;54.54;102027.78;4893060;28;96851;-76
2024/02/18 06:20:42;;;;;;;5.18;2.13;;;;;;;7.28;54.56;102022.53;4863945;28;96830;-76
2024/02/18 06:23:07;;;;;;;4.07;1.80;;;;;;;7.37;54.50;102021.69;4896482;28;97881;-75
2024/02/18 06:25:37;;;;;;;4.18;1.85;;;;;;;7.46;54.37;102033.06;4896242;28;97333;-76
2024/02/18 06:28:09;;;;;;;6.00;2.25;;;;;;;7.46;55.09;102033.06;4865717;28;96748;-75
2024/02/18 06:30:38;;;;;;;7.53;2.25;;;;;;;7.62;54.41;102025.31;4869485;28;96759;-76
2024/02/18 06:33:05;;;;;;;4.30;2.35;;;;;;;7.85;54.12;102031.56;4896319;28;98134;-76
2024/02/18 06:35:31;;;;;;;3.85;2.20;;;;;;;7.99;53.59;102026.34;4895809;28;97474;-76
2024/02/18 06:37:56;;;;;;;5.30;2.28;;;;;;;7.82;54.14;102028.03;4880051;28;96945;-76
2024/02/18 06:40:23;;;;;;;3.45;2.00;;;;;;;7.67;54.97;102026.22;4879909;28;96954;-76
2024/02/18 06:42:49;;;;;;;5.93;2.22;;;;;;;7.57;55.33;102038.38;4878206;28;101181;-76
2024/02/18 06:45:15;;;;;;;8.90;2.17;;;;;;;7.65;55.34;102033.16;4884775;28;97444;-76
2024/02/18 06:47:40;;;;;;;5.03;2.42;;;;;;;7.45;55.83;102041.78;4856659;28;97373;-76
2024/02/18 06:50:06;;;;;;;4.75;2.50;;;;;;;7.51;55.81;102035.72;4894815;28;96715;-76
2024/02/18 06:52:31;;;;;;;4.43;2.30;;;;;;;7.79;55.31;102033.25;4895077;28;97621;-76
2024/02/18 06:54:57;;;;;;;6.78;2.45;;;;;;;7.92;55.16;102038.53;4910234;28;101311;-75
2024/02/18 06:57:23;;;;;;;6.03;2.17;;;;;;;7.87;54.93;102042.00;4880098;28;96897;-76
2024/02/18 06:59:49;;;;;;;7.45;2.67;;;;;;;7.87;54.81;102032.41;4878290;28;96929;-77
2024/02/18 07:02:15;;;;;;;5.07;2.15;;;;;;;7.90;54.57;102021.09;4879161;28;98139;-76
2024/02/18 07:04:41;;;;;;;5.63;2.25;;;;;;;7.66;55.51;102017.50;4894756;28;97433;-76
2024/02/18 07:07:06;;;;;;;6.45;2.55;;;;;;;7.79;54.83;102014.94;4893848;28;96914;-76
2024/02/18 07:09:32;;;;;;;2.97;1.80;;;;;;;7.76;54.79;102017.53;4868671;28;97022;-77
2024/02/18 07:11:57;;;;;;;6.97;2.70;;;;;;;7.78;54.92;102027.16;4904783;28;101618;-76
2024/02/18 07:14:24;;;;;;;3.28;1.92;;;;;;;8.01;54.81;102027.25;4878474;28;100768;-76
2024/02/18 07:16:50;;;;;;;4.85;2.05;;;;;;;7.84;55.27;102027.16;4878911;28;97017;-76
2024/02/18 07:19:15;;;;;;;4.78;2.08;;;;;;;8.17;54.54;102038.63;4889199;28;100883;-76
2024/02/18 07:21:41;;;;;;;3.40;1.98;;;;;;;7.81;54.86;102036.75;4854143;28;101105;-76
2024/02/18 07:24:07;;;;;;;7.32;2.13;;;;;;;7.91;54.85;102025.44;4862759;28;100897;-76
2024/02/18 07:26:33;;;;;;;7.60;2.45;;;;;;;8.16;54.50;102024.66;4894621;28;97250;-76
2024/02/18 07:28:58;;;;;;;8.32;2.65;;;;;;;8.38;54.21;102029.97;4896453;28;96826;-76
2024/02/18 07:31:24;;;;;;;5.97;2.78;;;;;;;8.33;54.14;102034.31;4913514;28;98092;-76
2024/02/18 07:33:49;;;;;;;6.53;2.55;;;;;;;8.39;54.14;102034.38;4866071;28;101603;-76
2024/02/18 07:36:15;;;;;;;6.07;2.58;;;;;;;8.35;54.28;102032.59;4897852;28;96930;-78
2024/02/18 07:38:40;;;;;;;6.10;2.10;;;;;;;8.37;53.81;102033.44;4881493;28;97177;-76
2024/02/18 07:41:06;;;;;;;6.53;2.20;;;;;;;8.56;53.59;102037.03;4863474;28;101769;-77
2024/02/18 07:43:31;;;;;;;8.55;2.60;;;;;;;8.53;53.24;102027.41;4872401;28;99637;-76
2024/02/18 07:45:57;;;;;;;4.47;2.20;;;;;;;8.29;53.92;102033.44;4866952;28;96825;-76
2024/02/18 07:48:22;;;;;;;7.93;2.25;;;;;;;8.35;54.11;102032.59;4903462;28;97165;-76
2024/02/18 07:50:52;;;;;;;3.60;1.92;;;;;;;8.51;53.76;102031.75;4882220;28;101479;-76
2024/02/18 07:53:18;;;;;;;9.35;2.17;;;;;;;8.37;53.08;102036.94;4899141;28;97434;-77
2024/02/18 07:55:44;;;;;;;4.57;2.25;;;;;;;8.44;52.88;102037.88;4880477;28;96824;-76
2024/02/18 07:58:09;;;;;;;5.88;2.40;;;;;;;8.50;52.73;102037.88;4880458;28;96987;-75
2024/02/18 08:00:35;;;;;;;4.65;2.55;;;;;;;8.23;53.71;102037.75;4877413;28;101323;-76
2024/02/18 08:03:01;;;;;;;4.65;2.13;;;;;;;8.25;52.91;102029.06;4887901;28;101340;-76
2024/02/18 08:05:26;;;;;;;5.57;2.25;;;;;;;8.50;53.48;102029.16;4877814;28;96802;-76
2024/02/18 08:07:52;;;;;;;6.05;2.13;;;;;;;8.45;53.13;102025.66;4879220;28;96940;-76
2024/02/18 08:10:48;;;;;;;6.00;2.17;;;;;;;8.56;52.42;102030.03;4909647;28;97576;-76
2024/02/18 08:13:14;;;;;;;3.88;1.85;;;;;;;8.86;51.78;102020.44;4909445;28;101220;-76
2024/02/18 08:15:39;;;;;;;4.68;1.80;;;;;;;8.75;51.84;102012.59;4882340;28;96735;-75
2024/02/18 08:18:05;;;;;;;6.97;2.53;;;;;;;8.65;51.54;102015.22;4890542;28;96838;-75
2024/02/18 08:20:31;;;;;;;8.35;3.42;;;;;;;8.77;52.01;102020.44;4848324;28;101403;-76
2024/02/18 08:23:01;;;;;;;7.40;2.72;;;;;;;8.97;51.25;102008.22;4879129;28;101819;-75
2024/02/18 08:25:26;;;;;;;10.32;5.15;;;;;;;9.09;50.85;102012.59;4865424;28;96809;-76
2024/02/18 08:27:52;;;;;;;12.80;5.13;;;;;;;9.14;50.61;102008.22;4863460;28;97157;-76
2024/02/18 08:30:26;;;;;;;14.40;4.97;;;;;;;9.01;50.60;102009.97;4878103;28;100728;-77
2024/02/18 08:32:51;;;;;;;11.63;4.53;;;;;;;9.28;50.62;102010.81;4854525;29;101826;-76
2024/02/18 08:35:21;;;;;;;7.65;3.08;;;;;;;9.00;50.56;102016.09;4850941;28;97001;-76
2024/02/18 08:37:49;;;;;;;9.15;3.75;;;;;;;9.20;50.22;102010.81;4853267;29;96833;-76
2024/02/18 08:40:17;;;;;;;9.60;3.38;;;;;;;9.30;49.95;102011.66;4846772;28;101593;-76
2024/02/18 08:42:43;;;;;;;8.35;2.85;;;;;;;9.46;49.99;102015.16;4848344;28;101167;-76
2024/02/18 08:45:09;;;;;;;5.82;2.67;;;;;;;9.44;49.34;102009.03;4859713;28;97227;-76
2024/02/18 08:47:35;;;;;;;6.35;2.45;;;;;;;9.43;49.35;102009.91;4859529;28;96875;-76
2024/02/18 08:50:02;;;;;;;7.53;3.20;;;;;;;9.36;49.87;102002.94;4853454;28;100918;-76
2024/02/18 08:52:29;;;;;;;6.53;3.00;;;;;;;9.49;49.82;102005.53;4883902;28;97386;-76
2024/02/18 08:54:55;;;;;;;5.90;2.50;;;;;;;9.80;49.36;102010.66;4840784;28;96983;-76
2024/02/18 08:57:21;;;;;;;5.35;2.72;;;;;;;9.88;49.24;102008.00;4858852;28;96840;-76
2024/02/18 08:59:47;;;;;;;9.15;3.20;;;;;;;9.87;48.05;102007.13;4874105;28;97330;-77
2024/02/18 09:02:12;;;;;;;6.28;2.83;;;;;;;9.33;49.56;102006.41;4859311;28;97374;-76
2024/02/18 09:04:46;;;;;;;4.55;2.53;;;;;;;9.36;49.69;101998.56;4875664;28;96911;-76
2024/02/18 09:07:12;;;;;;;6.03;3.03;;;;;;;9.24;50.26;101999.44;4863860;28;96713;-75
2024/02/18 09:09:37;;;;;;;8.23;5.80;;;;;;;9.25;49.37;101997.69;4860411;28;100992;-75
2024/02/18 09:12:07;;;;;;;6.30;2.80;;;;;;;9.85;48.73;101998.38;4861530;28;97471;-76
2024/02/18 09:14:32;;;;;;;5.68;2.70;;;;;;;10.01;48.46;101983.47;4832758;29;97353;-76
2024/02/18 09:16:58;;;;;;;6.65;3.13;;;;;;;10.35;48.29;101986.78;4868618;28;96792;-76
2024/02/18 09:19:23;;;;;;;5.22;2.65;;;;;;;10.58;46.76;101981.34;4855664;28;97714;-77
2024/02/18 09:21:50;;;;;;;10.07;3.20;;;;;;;10.93;46.36;101990.69;4865917;28;97825;-76
2024/02/18 09:24:15;;;;;;;7.22;2.65;;;;;;;11.14;45.46;101987.03;4872762;28;96790;-76
2024/02/18 09:26:49;;;;;;;6.28;2.67;;;;;;;11.17;45.85;101983.47;4857903;28;98456;-77
2024/02/18 09:29:14;;;;;;;5.57;2.83;;;;;;;11.41;45.41;101970.06;4847736;28;101644;-76
2024/02/18 09:31:40;;;;;;;8.02;2.30;;;;;;;11.44;45.52;101980.56;4850791;29;101256;-75
2024/02/18 09:34:06;;;;;;;20.80;13.25;;;;;;;11.43;45.52;101984.09;4861268;28;97358;-76
2024/02/18 09:36:33;;;;;;;8.88;3.03;;;;;;;11.42;45.36;101984.94;4844714;28;96805;-76
2024/02/18 09:38:59;;;;;;;5.53;2.80;;;;;;;10.86;44.68;101987.25;4852816;28;100999;-76
2024/02/18 09:41:27;;;;;;;3.92;2.28;;;;;;;10.69;45.08;101983.91;4866678;28;97560;-77
2024/02/18 09:44:00;;;;;;;8.07;2.30;;;;;;;10.90;45.35;101989.88;4871136;28;96938;-76
2024/02/18 09:46:26;;;;;;;9.75;4.13;;;;;;;11.07;44.70;101974.81;4873653;28;97434;-76
2024/02/18 09:48:51;;;;;;;8.73;2.92;;;;;;;10.99;44.72;101974.00;4855803;28;101583;-77
2024/02/18 09:51:18;;;;;;;4.38;2.22;;;;;;;11.25;44.05;101958.84;4859927;28;98003;-77
2024/02/18 09:53:44;;;;;;;7.10;2.88;;;;;;;11.40;43.74;101957.78;4861422;28;96933;-78
2024/02/18 09:56:16;;;;;;;11.98;3.05;;;;;;;11.72;42.59;101954.81;4874143;28;96910;-77
2024/02/18 09:58:41;;;;;;;6.40;2.33;;;;;;;12.17;41.44;101955.06;4859176;28;97958;-77
2024/02/18 10:01:08;;;;;;;9.00;2.90;;;;;;;12.21;42.64;101950.63;4863799;28;101256;-78
2024/02/18 10:03:33;;;;;;;7.80;2.33;;;;;;;11.96;41.75;101955.41;4855069;28;96809;-77
2024/02/18 10:05:59;;;;;;;4.80;2.22;;;;;;;11.90;41.85;101942.31;4876432;28;97551;-76
2024/02/18 10:08:25;;;;;;;8.45;3.15;;;;;;;11.55;42.60;101946.25;4847663;28;100855;-76
2024/02/18 10:10:51;;;;;;;5.20;2.10;;;;;;;11.21;42.59;101938.75;4872722;28;97922;-78
2024/02/18 10:13:22;;;;;;;3.97;2.38;;;;;;;11.16;43.04;101934.44;4857185;28;96822;-78
2024/02/18 10:15:51;;;;;;;;;;;;;;;10.85;43.88;101937.38;4851827;28;96780;-78
2024/02/18 10:18:19;;;;;;;7.97;2.88;;;;;;;10.79;44.11;101925.16;4848915;28;97602;-77
2024/02/18 10:20:49;;;;;;;5.28;2.75;;;;;;;10.87;44.26;101933.81;4872542;28;100932;-78
2024/02/18 10:23:15;;;;;;;5.38;2.70;;;;;;;10.79;44.46;101935.69;4865460;28;96823;-77
2024/02/18 10:25:41;;;;;;;7.80;2.92;;;;;;;10.97;44.16;101925.88;4867608;28;97290;-77
2024/02/18 10:28:20;;;;;;;6.82;2.97;;;;;;;10.81;44.51;101930.41;4856564;28;100662;-78
2024/02/18 10:30:45;;;;;;;6.20;3.20;;;;;;;10.81;44.69;101933.03;4862436;28;97500;-77
2024/02/18 10:33:11;;;;;;;5.82;2.83;;;;;;;10.89;44.69;101939.09;4857305;29;96833;-78
2024/02/18 10:35:37;;;;;;;10.77;3.53;;;;;;;10.90;44.42;101918.94;4862298;28;96781;-78
2024/02/18 10:38:07;;;;;;;6.22;3.00;;;;;;;10.81;44.78;101926.00;4843235;28;101676;-77
2024/02/18 10:40:45;;;;;;;6.78;3.10;;;;;;;10.77;44.52;101920.81;4844493;28;101709;-77
2024/02/18 10:43:12;;;;;;;5.82;3.15;;;;;;;10.72;44.74;101917.34;4871593;28;96704;-78
2024/02/18 10:46:21;;;;;;;9.38;3.35;;;;;;;10.91;44.47;101895.28;4852146;29;96807;-81
2024/02/18 10:52:57;;;;;;;6.63;3.33;;;;;;;11.77;43.78;101876.66;4868237;29;96640;-80
2024/02/18 11:03:46;;;;;;;6.00;2.97;;;;;;;10.91;44.84;101861.13;4897459;28;96431;-81
2024/02/18 11:14:12;;;;;;;6.75;4.00;;;;;;;10.91;45.09;101837.47;4880697;28;96618;-81
2024/02/18 12:47:26;;;;;;;11.60;5.57;;;;;;;10.46;49.82;101718.06;5927115;23;99118;31
2024/02/18 12:50:02;;;;;;;10.52;5.28;;;;;;;10.42;47.96;101718.09;4816636;29;98828;-76
2024/02/18 12:52:28;;;;;;;6.65;3.90;;;;;;;10.38;48.03;101712.88;4819822;29;101493;-76
2024/02/18 12:55:04;;;;;;;12.32;6.38;;;;;;;10.58;47.78;101703.00;4803785;29;98036;-76
2024/02/18 12:57:30;;;;;;;29.90;12.40;;;;;;;10.68;47.25;101708.19;4831813;29;97741;-76
2024/02/18 12:59:57;;;;;;;9.40;5.15;;;;;;;10.60;47.53;101708.25;4819988;29;98008;-75
2024/02/18 13:02:22;;;;;;;12.80;6.63;;;;;;;10.50;47.73;101690.88;4818657;29;98546;-75
2024/02/18 13:04:54;;;;;;;14.35;7.95;;;;;;;10.24;48.02;101686.78;4803073;29;97206;-76
2024/02/18 13:07:20;;;;;;;14.13;4.70;;;;;;;10.10;48.50;101692.16;4802369;29;96923;-75
2024/02/18 13:09:55;;;;;;;11.02;5.28;;;;;;;10.10;48.05;101670.31;4822609;29;97067;-75
2024/02/18 13:12:23;;;;;;;9.57;4.60;;;;;;;10.01;48.31;101676.53;4809503;29;101528;-75
2024/02/18 13:14:49;;;;;;;11.27;4.78;;;;;;;9.89;48.92;101664.41;4823322;29;97674;-76
2024/02/18 13:17:15;;;;;;;14.43;7.32;;;;;;;9.91;49.25;101670.47;4804233;29;97222;-76
2024/02/18 13:19:45;;;;;;;15.35;7.75;;;;;;;9.93;49.38;101667.84;4835698;29;96772;-75
2024/02/18 13:22:14;;;;;;;6.00;3.70;;;;;;;9.65;49.42;101662.84;4818684;29;101072;-76